This is the latest recevied weather packets stored in our database for station/object KJ5BMY-13. If no packets are shown the sender has not sent any weather packets the latest 10 day(s).
| Time | Temp. | Humidity | Pressure | Rain* | Wind** | Luminosity | Snow |
|---|---|---|---|---|---|---|---|
| 1777813668 | 16.67° C | 70% | 1023.1 hPa | 0 mm | - | - | - |
| 1777813365 | 16.11° C | 73% | 1023.1 hPa | 0 mm | - | - | - |
| 1777813063 | 15.56° C | 74% | 1023.1 hPa | 0 mm | - | - | - |
| 1777812760 | 14.44° C | 79% | 1023.1 hPa | 0 mm | - | - | - |
| 1777812456 | 13.89° C | 82% | 1023.2 hPa | 0 mm | - | - | - |
| 1777812155 | 12.78° C | 84% | 1023 hPa | 0 mm | - | - | - |
| 1777811853 | 12.22° C | 87% | 1023 hPa | 0 mm | - | - | - |
| 1777811551 | 11.67° C | 87% | 1023.1 hPa | 0 mm | - | - | - |
| 1777811246 | 11.67° C | 88% | 1023 hPa | 0 mm | - | - | - |
| 1777810944 | 11.11° C | 87% | 1022.9 hPa | 0 mm | - | - | - |
| 1777810640 | 11.11° C | 87% | 1022.9 hPa | 0 mm | - | - | - |
| 1777810337 | 11.11° C | 87% | 1022.6 hPa | 0 mm | - | - | - |
| 1777810033 | 11.11° C | 86% | 1022.8 hPa | 0 mm | - | - | - |
| 1777809731 | 11.11° C | 86% | 1022.8 hPa | 0 mm | - | - | - |
| 1777809428 | 11.11° C | 86% | 1022.7 hPa | 0 mm | - | - | - |
| 1777809126 | 11.11° C | 85% | 1022.6 hPa | 0 mm | - | - | - |
| 1777808824 | 11.67° C | 84% | 1023 hPa | 0 mm | - | - | - |
| 1777808520 | 11.67° C | 83% | 1022.6 hPa | 0 mm | - | - | - |
| 1777808217 | 11.67° C | 83% | 1022.5 hPa | 0 mm | - | - | - |
| 1777807916 | 11.67° C | 82% | 1022.5 hPa | 0 mm | - | - | - |
| 1777807613 | 12.22° C | 81% | 1022.5 hPa | 0 mm | - | - | - |
| 1777807310 | 12.22° C | 80% | 1022.3 hPa | 0 mm | - | - | - |
| 1777807006 | 12.22° C | 80% | 1022.4 hPa | 0 mm | - | - | - |
| 1777806703 | 12.22° C | 80% | 1022.3 hPa | 0 mm | - | - | - |
| 1777806399 | 12.78° C | 79% | 1022.4 hPa | 0 mm | - | - | - |
* Rain latest hour (hover to see other rain measurements)
** Current wind speed in m/s (hover to see current wind gust speed)